Silver, Texas
Current Conditions -  °F | °C
As of 8:15 AM on Thursday 18 Dec 2014 (Local Time) from KSWW Reporting Station
Clear Clear  
Wind Chill:   Ceiling: Unl
Heat Index:   Visibility: 10mi
Dew Point:   Wind: 8mph
Humidity: 84%   Direction: 220°SW
Pressure: 30.13"   Gusts: NA
Location:  32.07°N, 100.68°W
Report Text: KSWW 181415Z AUTO 22007KT 10SM CLR 07/04 A3013 RMK AO2 T00670041
Loading
Personal Weather Stations






























Interactive Weather Map New forecast layout! Learn more

10-Day Weather Forecast

Advertisements
Track Severe Weather on mobile